createdAt,value
2024-02-13T00:02:02.503Z,4.59
2024-02-13T00:17:07.928Z,4.65
2024-02-13T00:47:16.674Z,4.57
2024-02-13T00:52:18.746Z,4.55
2024-02-13T00:57:19.923Z,4.5
2024-02-13T01:02:21.457Z,4.48
2024-02-13T02:37:51.257Z,4.46
2024-02-13T02:42:53.293Z,4.44
2024-02-13T02:47:54.909Z,4.44
2024-02-13T02:52:56.954Z,4.39
2024-02-13T02:57:59.105Z,4.36
2024-02-13T03:03:01.288Z,4.37
2024-02-13T03:08:02.699Z,4.38
2024-02-13T03:13:03.910Z,4.37
2024-02-13T03:18:05.602Z,4.37
2024-02-13T03:23:07.377Z,4.33
2024-02-13T03:28:08.808Z,4.37
2024-02-13T03:33:10.332Z,4.31
2024-02-13T03:38:11.509Z,4.31
2024-02-13T03:43:13.471Z,4.39
2024-02-13T03:48:15.281Z,4.37
2024-02-13T03:53:16.750Z,4.39
2024-02-13T03:58:27.285Z,4.42
2024-02-13T04:03:20.300Z,4.44
2024-02-13T04:08:22.397Z,4.46
2024-02-13T04:13:24.497Z,4.41
2024-02-13T04:18:25.966Z,4.41
2024-02-13T04:23:27.794Z,4.4
2024-02-13T04:28:29.006Z,4.42
2024-02-13T04:33:30.760Z,4.46
2024-02-13T04:38:32.734Z,4.38
2024-02-13T04:43:34.114Z,4.44
2024-02-13T04:48:36.032Z,4.44
2024-02-13T04:53:37.522Z,4.44
2024-02-13T04:58:39.521Z,4.44
2024-02-13T05:03:41.146Z,4.46
2024-02-13T05:08:42.208Z,4.44
2024-02-13T05:13:43.814Z,4.5
2024-02-13T05:18:46.055Z,4.48
2024-02-13T05:23:47.338Z,4.52
2024-02-13T05:28:49.018Z,4.58
2024-02-13T05:33:51.052Z,4.57
2024-02-13T05:38:52.359Z,4.52
2024-02-13T05:43:54.153Z,4.48
2024-02-13T05:48:56.168Z,4.42
2024-02-13T05:53:58.120Z,4.38
2024-02-13T05:58:59.993Z,4.27
2024-02-13T06:04:02.186Z,4.25
2024-02-13T06:09:03.947Z,4.11
2024-02-13T06:14:05.429Z,4.14
2024-02-13T06:19:07.018Z,4.15
2024-02-13T06:24:08.555Z,4.04
2024-02-13T06:29:09.820Z,4.04
2024-02-13T06:34:11.883Z,4.04
2024-02-13T06:39:13.627Z,4.05
2024-02-13T06:44:15.063Z,4.1
2024-02-13T06:49:16.946Z,4.13
2024-02-13T06:54:18.329Z,4.12
2024-02-13T06:59:20.467Z,4.13
2024-02-13T07:04:22.049Z,4.11
2024-02-13T07:09:23.651Z,4.15
2024-02-13T07:14:25.784Z,4.26
2024-02-13T07:19:27.200Z,4.28
2024-02-13T07:24:29.105Z,4.08
2024-02-13T07:29:30.789Z,4.02
2024-02-13T07:34:32.341Z,4.03
2024-02-13T07:39:34.341Z,4.07
2024-02-13T07:44:35.677Z,4.12
2024-02-13T07:49:37.483Z,4.21
2024-02-13T07:54:39.496Z,4.28
2024-02-13T07:59:41.203Z,4.26
2024-02-13T08:04:43.381Z,4.3
2024-02-13T08:09:44.412Z,4.46
2024-02-13T08:14:45.768Z,4.58
2024-02-13T08:19:47.208Z,4.69
2024-02-13T08:24:49.263Z,4.84
2024-02-13T08:29:52.082Z,5
2024-02-13T08:34:53.236Z,5.13
2024-02-13T08:39:54.641Z,5.35
2024-02-13T08:44:56.628Z,5.56
2024-02-13T08:49:58.490Z,5.76
2024-02-13T08:54:59.990Z,5.96
2024-02-13T09:00:02.224Z,6.1
2024-02-13T09:05:03.839Z,6.26
2024-02-13T09:10:05.083Z,6.41
2024-02-13T09:15:06.373Z,6.62
2024-02-13T09:20:08.469Z,6.76
2024-02-13T09:25:10.579Z,6.89
2024-02-13T09:30:12.307Z,6.97
2024-02-13T09:35:14.117Z,7
2024-02-13T09:40:16.045Z,7.01
2024-02-13T09:45:18.038Z,7.17
2024-02-13T09:50:20.156Z,7.24
2024-02-13T09:55:21.860Z,7.3
2024-02-13T10:00:23.248Z,7.4
2024-02-13T10:05:25.014Z,7.52
2024-02-13T10:10:26.470Z,7.48
2024-02-13T10:15:28.214Z,7.49
2024-02-13T10:20:29.476Z,7.58
2024-02-13T10:25:30.797Z,7.7
2024-02-13T10:30:32.346Z,7.83
2024-02-13T10:35:34.592Z,8.05
2024-02-13T10:40:35.750Z,8.18
2024-02-13T10:45:37.283Z,8.35
2024-02-13T10:50:39.104Z,8.56
2024-02-13T10:55:43.507Z,8.7
2024-02-13T11:00:42.820Z,8.72
2024-02-13T11:05:44.796Z,8.89
2024-02-13T11:10:46.822Z,9.09
2024-02-13T11:15:48.582Z,9.32
2024-02-13T11:20:50.513Z,9.62
2024-02-13T11:25:51.957Z,9.64
2024-02-13T11:30:54.000Z,9.57
2024-02-13T11:35:55.281Z,9.64
2024-02-13T11:40:57.092Z,9.64
2024-02-13T11:45:58.601Z,9.8
2024-02-13T11:51:00.253Z,9.68
2024-02-13T11:56:01.575Z,9.81
2024-02-13T12:01:03.442Z,9.81
2024-02-13T12:06:05.340Z,9.95
2024-02-13T12:11:06.832Z,9.93
2024-02-13T12:11:13.112Z,9.93
2024-02-13T12:16:15.015Z,9.78
2024-02-13T12:21:16.255Z,9.84
2024-02-13T12:26:17.866Z,9.75
2024-02-13T12:31:19.446Z,9.67
2024-02-13T12:36:21.323Z,9.55
2024-02-13T12:41:22.954Z,9.2
2024-02-13T12:46:24.900Z,9.17
2024-02-13T12:51:26.223Z,9.1
2024-02-13T12:56:28.177Z,9.01
2024-02-13T13:01:29.661Z,8.99
2024-02-13T13:06:31.788Z,8.88
2024-02-13T13:11:33.836Z,8.75
2024-02-13T13:16:35.053Z,8.68
2024-02-13T13:21:36.555Z,9.1
2024-02-13T13:26:38.623Z,9.52
2024-02-13T13:31:40.632Z,9.54
2024-02-13T13:36:41.824Z,9.5
2024-02-13T13:41:43.255Z,9.72
2024-02-13T13:46:44.488Z,10.01
2024-02-13T13:51:46.280Z,10.67
2024-02-13T13:56:48.163Z,11.64
2024-02-13T14:01:50.057Z,12.23
2024-02-13T14:42:04.179Z,11.58
2024-02-13T15:17:15.307Z,12.77
2024-02-13T15:22:16.723Z,12.52
2024-02-13T15:37:22.442Z,11.56
2024-02-13T15:52:27.911Z,10.16
2024-02-13T16:02:31.050Z,9.1
2024-02-13T16:32:41.423Z,7.34
2024-02-13T16:57:50.400Z,5.99
2024-02-13T17:02:52.376Z,5.89
2024-02-13T17:07:53.513Z,5.76
2024-02-13T17:12:55.596Z,5.73
2024-02-13T17:17:56.967Z,5.74
2024-02-13T17:22:58.153Z,5.53
2024-02-13T17:28:00.030Z,5.34
2024-02-13T17:33:02.814Z,5.15
2024-02-13T17:38:03.226Z,4.75
2024-02-13T17:43:05.166Z,4.44
2024-02-13T17:48:06.797Z,4.27
2024-02-13T17:53:08.614Z,4.08
2024-02-13T17:58:10.160Z,4.01
2024-02-13T18:03:11.817Z,3.97
2024-02-13T18:08:13.859Z,3.97
2024-02-13T18:13:15.670Z,3.96
2024-02-13T18:18:17.292Z,3.82
2024-02-13T18:23:19.324Z,3.66
2024-02-13T18:28:20.939Z,3.57
2024-02-13T18:33:22.368Z,3.53
2024-02-13T18:38:24.008Z,3.45
2024-02-13T18:43:25.567Z,3.42
2024-02-13T18:48:27.189Z,3.37
2024-02-13T18:53:29.027Z,3.32
2024-02-13T19:03:32.338Z,3
2024-02-13T19:08:34.557Z,2.92
2024-02-13T19:13:36.514Z,2.87
2024-02-13T19:18:38.050Z,2.74
2024-02-13T19:23:40.022Z,2.67
2024-02-13T19:28:41.539Z,2.66
2024-02-13T19:33:43.233Z,2.6
2024-02-13T19:38:44.510Z,2.57
2024-02-13T19:43:46.410Z,2.56
2024-02-13T19:48:47.979Z,2.48
2024-02-13T19:53:49.673Z,2.52
2024-02-13T19:58:51.836Z,2.54
2024-02-13T20:03:53.628Z,2.54
2024-02-13T20:08:55.247Z,2.54
2024-02-13T20:13:56.528Z,2.52
2024-02-13T20:18:58.903Z,2.52
2024-02-13T20:23:59.911Z,2.49
2024-02-13T20:29:01.347Z,2.45
2024-02-13T20:34:03.468Z,2.4
2024-02-13T20:39:05.530Z,2.38
2024-02-13T20:44:07.394Z,2.38
2024-02-13T20:49:09.685Z,2.31
2024-02-13T20:54:11.614Z,2.2
2024-02-13T20:59:13.060Z,2.16
2024-02-13T21:04:14.997Z,2.1
2024-02-13T21:09:16.769Z,2.07
2024-02-13T21:14:18.359Z,2.06
2024-02-13T21:19:20.122Z,2.01
2024-02-13T21:24:21.772Z,1.96
2024-02-13T21:29:23.407Z,1.94
2024-02-13T21:34:25.316Z,1.89
2024-02-13T21:39:27.204Z,1.85
2024-02-13T21:44:28.515Z,1.86
2024-02-13T21:49:29.817Z,1.88
2024-02-13T21:54:31.712Z,1.89
2024-02-13T21:59:33.287Z,1.88
2024-02-13T22:04:35.163Z,1.9
2024-02-13T22:09:36.631Z,1.89
2024-02-13T22:14:38.440Z,1.85
2024-02-13T22:19:40.224Z,1.83
2024-02-13T22:24:41.482Z,1.74
2024-02-13T22:29:43.188Z,1.69
2024-02-13T22:34:44.703Z,1.71
2024-02-13T22:39:46.334Z,1.69
2024-02-13T22:44:47.666Z,1.66
2024-02-13T22:49:49.553Z,1.68
2024-02-13T22:54:51.036Z,1.7
2024-02-13T22:59:52.865Z,1.73
2024-02-13T23:04:54.391Z,1.73
2024-02-13T23:09:56.250Z,1.77
2024-02-13T23:14:59.922Z,1.81
2024-02-13T23:19:59.396Z,1.82
2024-02-13T23:25:01.270Z,1.83
2024-02-13T23:30:02.785Z,1.85
2024-02-13T23:35:04.503Z,1.87
2024-02-13T23:40:05.819Z,1.9
2024-02-13T23:45:07.897Z,1.89
2024-02-13T23:50:09.295Z,1.82
2024-02-13T23:55:10.527Z,1.8
